createdAt,value
2022-12-03T00:00:12.810Z,17.95
2022-12-03T00:03:15.638Z,17.93
2022-12-03T00:06:18.033Z,17.91
2022-12-03T00:09:20.308Z,17.89
2022-12-03T00:12:22.455Z,17.90
2022-12-03T00:15:24.606Z,17.89
2022-12-03T00:18:26.754Z,17.88
2022-12-03T00:21:28.870Z,17.87
2022-12-03T00:24:30.956Z,17.84
2022-12-03T00:27:33.026Z,17.85
2022-12-03T00:30:35.194Z,17.82
2022-12-03T00:33:37.248Z,17.81
2022-12-03T00:36:39.352Z,17.81
2022-12-03T00:39:41.473Z,17.81
2022-12-03T00:42:43.605Z,17.79
2022-12-03T00:45:45.684Z,17.78
2022-12-03T00:48:47.782Z,17.80
2022-12-03T00:51:50.047Z,17.82
2022-12-03T00:54:52.471Z,17.78
2022-12-03T00:57:54.740Z,17.76
2022-12-03T01:00:56.847Z,17.73
2022-12-03T01:03:58.999Z,17.75
2022-12-03T01:07:01.587Z,17.73
2022-12-03T01:10:05.444Z,17.72
2022-12-03T01:13:07.800Z,17.72
2022-12-03T01:16:10.140Z,17.68
2022-12-03T01:19:16.439Z,17.67
2022-12-03T01:22:18.988Z,17.66
2022-12-03T01:25:21.281Z,17.65
2022-12-03T01:28:23.391Z,17.63
2022-12-03T01:31:44.279Z,17.64
2022-12-03T01:34:47.917Z,17.61
2022-12-03T01:37:50.006Z,17.60
2022-12-03T01:40:52.192Z,17.60
2022-12-03T01:43:54.889Z,17.61
2022-12-03T01:46:59.067Z,17.59
2022-12-03T01:50:15.216Z,17.56
2022-12-03T01:53:18.961Z,17.56
2022-12-03T01:56:21.306Z,17.56
2022-12-03T01:59:32.747Z,17.56
2022-12-03T02:02:35.534Z,17.52
2022-12-03T02:05:38.540Z,17.52
2022-12-03T02:08:41.627Z,17.53
2022-12-03T02:11:46.954Z,17.49
2022-12-03T02:14:49.202Z,17.52
2022-12-03T02:17:51.888Z,17.48
2022-12-03T02:21:13.993Z,17.48
2022-12-03T02:24:25.776Z,17.48
2022-12-03T02:27:28.646Z,17.47
2022-12-03T02:30:32.022Z,17.44
2022-12-03T02:33:34.277Z,17.44
2022-12-03T02:36:37.398Z,17.41
2022-12-03T02:39:43.259Z,17.39
2022-12-03T02:42:45.829Z,17.39
2022-12-03T02:45:53.406Z,17.37
2022-12-03T02:48:56.042Z,17.37
2022-12-03T02:51:58.189Z,17.37
2022-12-03T02:55:01.564Z,17.36
2022-12-03T02:58:04.937Z,17.37
2022-12-03T03:01:08.192Z,17.35
2022-12-03T03:04:10.468Z,17.33
2022-12-03T03:07:12.763Z,17.32
2022-12-03T03:10:17.053Z,17.30
2022-12-03T03:13:20.353Z,17.30
2022-12-03T03:16:22.618Z,17.29
2022-12-03T03:19:28.656Z,17.29
2022-12-03T03:22:35.696Z,17.25
2022-12-03T03:25:39.304Z,17.25
2022-12-03T03:28:45.637Z,17.24
2022-12-03T03:31:47.965Z,17.24
2022-12-03T03:34:50.319Z,17.24
2022-12-03T03:37:53.703Z,17.21
2022-12-03T03:40:57.942Z,17.21
2022-12-03T03:44:00.449Z,17.21
2022-12-03T03:47:02.906Z,17.20
2022-12-03T03:50:06.462Z,17.18
2022-12-03T03:53:09.092Z,17.19
2022-12-03T03:56:12.948Z,17.16
2022-12-03T03:59:15.501Z,17.16
2022-12-03T04:02:22.858Z,17.16
2022-12-03T04:05:25.723Z,17.13
2022-12-03T04:08:28.582Z,17.11
2022-12-03T04:11:49.225Z,17.13
2022-12-03T04:14:51.607Z,17.10
2022-12-03T04:18:12.867Z,17.11
2022-12-03T04:21:36.325Z,17.08
2022-12-03T04:24:38.470Z,17.07
2022-12-03T04:27:59.055Z,17.07
2022-12-03T04:31:21.322Z,17.05
2022-12-03T04:34:41.913Z,17.03
2022-12-03T04:37:44.077Z,17.04
2022-12-03T04:41:01.126Z,17.02
2022-12-03T04:44:21.767Z,17.02
2022-12-03T04:47:23.856Z,16.99
2022-12-03T04:50:25.936Z,16.99
2022-12-03T04:53:28.039Z,16.98
2022-12-03T04:56:30.151Z,16.98
2022-12-03T04:59:32.507Z,16.95
2022-12-03T05:02:34.662Z,16.94
2022-12-03T05:05:36.798Z,16.93
2022-12-03T05:08:38.915Z,16.92
2022-12-03T05:11:41.860Z,16.92
2022-12-03T05:14:44.038Z,16.92
2022-12-03T05:17:46.137Z,16.89
2022-12-03T05:20:53.164Z,16.87
2022-12-03T05:23:56.011Z,16.87
2022-12-03T05:26:58.082Z,16.86
2022-12-03T05:30:00.229Z,16.85
2022-12-03T05:33:02.507Z,16.84
2022-12-03T05:36:04.785Z,16.84
2022-12-03T05:39:06.945Z,16.82
2022-12-03T05:42:28.874Z,16.84
2022-12-03T05:45:35.539Z,16.81
2022-12-03T05:48:37.580Z,16.81
2022-12-03T05:51:39.634Z,16.80
2022-12-03T05:54:41.746Z,16.80
2022-12-03T05:57:44.060Z,16.79
2022-12-03T06:00:46.133Z,16.79
2022-12-03T06:03:48.332Z,16.80
2022-12-03T06:06:50.562Z,16.89
2022-12-03T06:09:52.652Z,16.95
2022-12-03T06:12:55.099Z,16.99
2022-12-03T06:15:57.232Z,17.04
2022-12-03T06:18:59.353Z,17.11
2022-12-03T06:22:01.477Z,17.21
2022-12-03T06:25:06.818Z,17.31
2022-12-03T06:28:09.519Z,17.43
2022-12-03T06:31:12.063Z,17.52
2022-12-03T06:34:14.251Z,17.61
2022-12-03T06:37:16.329Z,17.63
2022-12-03T06:40:18.784Z,17.66
2022-12-03T06:43:20.873Z,17.66
2022-12-03T06:46:22.981Z,17.67
2022-12-03T06:49:25.107Z,17.70
2022-12-03T06:52:27.175Z,17.70
2022-12-03T06:55:29.302Z,17.87
2022-12-03T06:58:31.387Z,18.10
2022-12-03T07:01:33.576Z,18.19
2022-12-03T07:04:35.709Z,18.19
2022-12-03T07:07:37.845Z,18.25
2022-12-03T07:10:40.117Z,18.27
2022-12-03T07:13:42.186Z,18.28
2022-12-03T07:16:44.402Z,18.29
2022-12-03T07:19:46.627Z,18.28
2022-12-03T07:22:48.768Z,18.25
2022-12-03T07:25:50.837Z,18.29
2022-12-03T07:28:53.197Z,18.39
2022-12-03T07:31:55.329Z,18.42
2022-12-03T07:34:57.450Z,18.38
2022-12-03T07:37:59.494Z,18.39
2022-12-03T07:41:01.628Z,18.44
2022-12-03T07:44:06.587Z,18.49
2022-12-03T07:47:12.971Z,18.51
2022-12-03T07:50:15.220Z,18.51
2022-12-03T07:53:17.361Z,18.49
2022-12-03T07:56:19.454Z,18.56
2022-12-03T07:59:21.666Z,18.63
2022-12-03T08:02:23.765Z,18.61
2022-12-03T08:05:26.856Z,18.57
2022-12-03T08:08:28.968Z,18.58
2022-12-03T08:11:32.187Z,18.72
2022-12-03T08:14:35.544Z,18.76
2022-12-03T08:17:39.547Z,18.72
2022-12-03T08:20:43.329Z,18.72
2022-12-03T08:23:45.706Z,18.79
2022-12-03T08:26:49.520Z,18.81
2022-12-03T08:30:05.455Z,18.93
2022-12-03T08:33:35.430Z,19.00
2022-12-03T08:36:37.552Z,19.02
2022-12-03T08:39:46.999Z,19.15
2022-12-03T08:42:49.757Z,19.27
2022-12-03T08:45:53.804Z,19.29
2022-12-03T08:48:55.978Z,19.25
2022-12-03T08:52:01.686Z,19.30
2022-12-03T08:55:34.761Z,19.35
2022-12-03T08:58:43.776Z,19.38
2022-12-03T09:01:47.001Z,19.36
2022-12-03T09:04:49.238Z,19.39
2022-12-03T09:07:51.375Z,19.50
2022-12-03T09:10:53.556Z,19.52
2022-12-03T09:13:55.633Z,19.54
2022-12-03T09:16:57.859Z,19.54
2022-12-03T09:20:00.207Z,19.57
2022-12-03T09:23:02.866Z,19.66
2022-12-03T09:26:05.053Z,19.76
2022-12-03T09:29:11.867Z,19.72
2022-12-03T09:32:18.349Z,19.72
2022-12-03T09:35:20.922Z,19.81
2022-12-03T09:38:22.997Z,19.89
2022-12-03T09:41:25.621Z,19.91
2022-12-03T09:44:30.574Z,19.91
2022-12-03T09:47:32.852Z,19.90
2022-12-03T09:50:37.283Z,19.89
2022-12-03T09:53:41.463Z,19.99
2022-12-03T09:56:43.769Z,19.98
2022-12-03T09:59:46.067Z,19.99
2022-12-03T10:02:49.475Z,19.99
2022-12-03T10:05:53.492Z,19.99
2022-12-03T10:08:56.012Z,20.07
2022-12-03T10:11:59.717Z,20.09
2022-12-03T10:15:01.997Z,20.00
2022-12-03T10:18:22.183Z,20.00
2022-12-03T10:21:28.788Z,20.07
2022-12-03T10:24:35.992Z,20.06
2022-12-03T10:27:38.787Z,20.10
2022-12-03T10:30:55.458Z,20.13
2022-12-03T10:33:58.742Z,20.13
2022-12-03T10:37:21.682Z,20.17
2022-12-03T10:40:44.690Z,20.14
2022-12-03T10:43:46.782Z,20.15
2022-12-03T10:47:10.705Z,20.18
2022-12-03T10:50:19.295Z,20.15
2022-12-03T10:53:26.124Z,20.24
2022-12-03T10:56:28.608Z,20.25
2022-12-03T10:59:33.360Z,20.21
2022-12-03T11:02:35.496Z,20.26
2022-12-03T11:05:37.644Z,20.31
2022-12-03T11:08:59.604Z,20.26
2022-12-03T11:12:06.474Z,20.31
2022-12-03T11:15:15.963Z,20.33
2022-12-03T11:18:36.491Z,20.31
2022-12-03T11:22:09.675Z,20.27
2022-12-03T11:25:44.565Z,20.22
2022-12-03T11:28:46.656Z,20.24
2022-12-03T11:31:49.009Z,20.19
2022-12-03T11:34:51.440Z,20.12
2022-12-03T11:37:53.823Z,20.10
2022-12-03T11:41:29.573Z,20.12
2022-12-03T11:44:32.992Z,20.18
2022-12-03T11:47:41.193Z,20.25
2022-12-03T11:50:49.416Z,20.21
2022-12-03T11:53:54.320Z,20.18
2022-12-03T11:56:56.445Z,20.16
2022-12-03T12:00:00.977Z,20.10
2022-12-03T12:03:03.097Z,20.05
2022-12-03T12:06:11.363Z,20.14
2022-12-03T12:09:13.443Z,20.14
2022-12-03T12:12:39.996Z,20.11
2022-12-03T12:15:44.748Z,20.00
2022-12-03T12:18:55.201Z,20.00
2022-12-03T12:22:19.222Z,19.99
2022-12-03T12:25:30.120Z,20.05
2022-12-03T12:28:32.223Z,20.02
2022-12-03T12:31:34.387Z,20.03
2022-12-03T12:34:41.951Z,20.06
2022-12-03T12:37:59.828Z,20.11
2022-12-03T12:41:07.429Z,20.12
2022-12-03T12:44:15.737Z,20.13
2022-12-03T12:47:17.924Z,20.11
2022-12-03T12:50:20.283Z,20.14
2022-12-03T12:53:27.269Z,20.12
2022-12-03T12:56:32.787Z,20.12
2022-12-03T12:59:34.878Z,20.13
2022-12-03T13:02:42.704Z,20.11
2022-12-03T13:05:47.613Z,20.05
2022-12-03T13:08:50.420Z,20.06
2022-12-03T13:11:54.039Z,20.04
2022-12-03T13:14:59.309Z,20.05
2022-12-03T13:18:10.541Z,20.09
2022-12-03T13:21:23.553Z,19.90
2022-12-03T13:24:37.658Z,19.72
2022-12-03T13:27:39.739Z,19.82
2022-12-03T13:30:41.850Z,19.77
2022-12-03T13:33:43.917Z,19.70
2022-12-03T13:36:52.016Z,19.66
2022-12-03T13:40:06.055Z,19.61
2022-12-03T13:43:15.932Z,19.57
2022-12-03T13:46:18.206Z,19.48
2022-12-03T13:49:23.188Z,19.43
2022-12-03T13:52:26.137Z,19.44
2022-12-03T13:55:31.295Z,19.41
2022-12-03T13:58:33.442Z,19.42
2022-12-03T14:01:36.300Z,19.41
2022-12-03T14:04:38.877Z,19.36
2022-12-03T14:07:41.058Z,19.35
2022-12-03T14:10:43.138Z,19.39
2022-12-03T14:13:45.230Z,19.37
2022-12-03T14:16:47.680Z,19.38
2022-12-03T14:19:50.020Z,19.39
2022-12-03T14:22:57.669Z,19.38
2022-12-03T14:26:01.289Z,19.39
2022-12-03T14:29:08.404Z,19.38
2022-12-03T14:32:11.024Z,19.39
2022-12-03T14:35:13.183Z,19.40
2022-12-03T14:38:15.245Z,19.33
2022-12-03T14:41:36.245Z,19.33
2022-12-03T14:44:38.616Z,19.35
2022-12-03T14:47:40.713Z,19.32
2022-12-03T14:50:42.803Z,19.33
2022-12-03T14:53:44.865Z,19.29
2022-12-03T14:56:46.972Z,19.29
2022-12-03T14:59:49.079Z,19.28
2022-12-03T15:02:51.220Z,19.27
2022-12-03T15:05:53.324Z,19.28
2022-12-03T15:08:55.413Z,19.17
2022-12-03T15:11:57.501Z,19.07
2022-12-03T15:15:00.217Z,19.10
2022-12-03T15:18:02.331Z,19.06
2022-12-03T15:21:04.475Z,19.01
2022-12-03T15:24:07.025Z,19.02
2022-12-03T15:27:09.109Z,18.96
2022-12-03T15:30:11.248Z,19.12
2022-12-03T15:33:13.625Z,19.16
2022-12-03T15:36:15.752Z,19.13
2022-12-03T15:39:17.830Z,19.10
2022-12-03T15:42:20.003Z,19.08
2022-12-03T15:45:22.082Z,19.06
2022-12-03T15:48:24.146Z,19.08
2022-12-03T15:51:26.490Z,19.08
2022-12-03T15:54:28.584Z,19.09
2022-12-03T15:57:31.175Z,19.07
2022-12-03T16:00:33.212Z,19.02
2022-12-03T16:03:35.849Z,19.05
2022-12-03T16:06:38.042Z,19.05
2022-12-03T16:09:40.375Z,19.03
2022-12-03T16:12:42.460Z,19.03
2022-12-03T16:15:44.911Z,19.03
2022-12-03T16:18:46.999Z,19.02
2022-12-03T16:21:49.032Z,19.01
2022-12-03T16:24:51.107Z,18.98
2022-12-03T16:27:53.223Z,18.97
2022-12-03T16:30:55.387Z,18.96
2022-12-03T16:33:57.551Z,18.97
2022-12-03T16:36:59.718Z,18.98
2022-12-03T16:40:01.968Z,18.98
2022-12-03T16:43:04.826Z,18.93
2022-12-03T16:46:26.118Z,18.93
2022-12-03T16:49:28.763Z,18.88
2022-12-03T16:52:30.878Z,18.87
2022-12-03T16:55:33.053Z,18.83
2022-12-03T16:58:35.135Z,18.82
2022-12-03T17:01:37.304Z,18.83
2022-12-03T17:04:39.579Z,18.80
2022-12-03T17:07:41.690Z,18.80
2022-12-03T17:10:44.507Z,18.81
2022-12-03T17:13:46.805Z,18.80
2022-12-03T17:16:49.181Z,18.76
2022-12-03T17:19:51.562Z,18.77
2022-12-03T17:22:53.793Z,18.73
2022-12-03T17:25:55.851Z,18.74
2022-12-03T17:28:57.982Z,18.72
2022-12-03T17:32:00.167Z,18.72
2022-12-03T17:35:03.044Z,18.72
2022-12-03T17:38:05.357Z,18.69
2022-12-03T17:41:07.492Z,18.69
2022-12-03T17:44:12.090Z,18.70
2022-12-03T17:47:15.096Z,18.72
2022-12-03T17:50:17.257Z,18.78
2022-12-03T17:53:19.300Z,18.79
2022-12-03T17:56:21.385Z,18.79
2022-12-03T17:59:23.437Z,18.77
2022-12-03T18:02:25.508Z,18.76
2022-12-03T18:05:27.600Z,18.78
2022-12-03T18:08:29.966Z,18.77
2022-12-03T18:11:32.248Z,18.82
2022-12-03T18:14:34.415Z,18.73
2022-12-03T18:17:36.570Z,18.70
2022-12-03T18:20:39.044Z,18.65
2022-12-03T18:23:41.632Z,18.64
2022-12-03T18:26:43.762Z,18.63
2022-12-03T18:29:46.075Z,18.62
2022-12-03T18:32:48.486Z,18.61
2022-12-03T18:35:53.913Z,18.59
2022-12-03T18:38:58.135Z,18.57
2022-12-03T18:42:00.458Z,18.57
2022-12-03T18:45:02.561Z,18.55
2022-12-03T18:48:15.858Z,18.54
2022-12-03T18:51:24.709Z,18.53
2022-12-03T18:54:26.860Z,18.54
2022-12-03T18:57:28.997Z,18.53
2022-12-03T19:00:31.747Z,18.52
2022-12-03T19:03:34.283Z,18.51
2022-12-03T19:06:36.487Z,18.49
2022-12-03T19:09:38.890Z,18.48
2022-12-03T19:12:40.980Z,18.49
2022-12-03T19:15:43.091Z,18.49
2022-12-03T19:18:45.334Z,18.47
2022-12-03T19:21:47.467Z,18.48
2022-12-03T19:24:49.927Z,18.50
2022-12-03T19:27:55.052Z,18.43
2022-12-03T19:31:13.772Z,18.42
2022-12-03T19:34:16.055Z,18.42
2022-12-03T19:37:18.146Z,18.41
2022-12-03T19:40:20.371Z,18.39
2022-12-03T19:43:22.608Z,18.37
2022-12-03T19:46:28.626Z,18.38
2022-12-03T19:49:30.880Z,18.37
2022-12-03T19:52:36.262Z,18.37
2022-12-03T19:55:38.356Z,18.33
2022-12-03T19:58:42.117Z,18.33
2022-12-03T20:01:44.494Z,18.34
2022-12-03T20:04:46.660Z,18.33
2022-12-03T20:07:48.869Z,18.29
2022-12-03T20:10:51.055Z,18.27
2022-12-03T20:14:01.684Z,18.28
2022-12-03T20:17:04.033Z,18.29
2022-12-03T20:20:07.165Z,18.25
2022-12-03T20:23:09.297Z,18.24
2022-12-03T20:26:13.925Z,18.23
2022-12-03T20:29:16.056Z,18.21
2022-12-03T20:32:18.229Z,18.23
2022-12-03T20:35:20.523Z,18.23
2022-12-03T20:38:23.744Z,18.22
2022-12-03T20:41:25.921Z,18.21
2022-12-03T20:44:28.239Z,18.22
2022-12-03T20:47:30.374Z,18.20
2022-12-03T20:50:32.570Z,18.17
2022-12-03T20:53:35.258Z,18.15
2022-12-03T20:56:39.444Z,18.15
2022-12-03T20:59:41.582Z,18.15
2022-12-03T21:02:43.766Z,18.15
2022-12-03T21:05:48.276Z,18.17
2022-12-03T21:08:52.169Z,18.19
2022-12-03T21:11:54.352Z,18.15
2022-12-03T21:14:56.482Z,18.15
2022-12-03T21:17:58.597Z,18.14
2022-12-03T21:21:02.236Z,18.14
2022-12-03T21:24:04.552Z,18.12
2022-12-03T21:27:06.671Z,18.10
2022-12-03T21:30:09.078Z,18.12
2022-12-03T21:33:11.163Z,18.10
2022-12-03T21:36:15.954Z,18.12
2022-12-03T21:39:19.262Z,18.10
2022-12-03T21:42:36.394Z,18.08
2022-12-03T21:45:42.528Z,18.08
2022-12-03T21:48:45.261Z,18.09
2022-12-03T21:51:47.435Z,18.09
2022-12-03T21:54:52.509Z,18.09
2022-12-03T21:57:54.600Z,18.07
2022-12-03T22:00:56.664Z,18.03
2022-12-03T22:03:59.037Z,18.03
2022-12-03T22:07:01.072Z,18.03
2022-12-03T22:10:04.489Z,17.99
2022-12-03T22:13:06.538Z,17.99
2022-12-03T22:16:11.826Z,18.00
2022-12-03T22:19:13.903Z,17.99
2022-12-03T22:22:15.966Z,17.96
2022-12-03T22:25:18.040Z,18.00
2022-12-03T22:28:20.060Z,17.98
2022-12-03T22:31:22.120Z,17.98
2022-12-03T22:34:24.271Z,17.98
2022-12-03T22:37:26.289Z,17.94
2022-12-03T22:40:28.391Z,17.96
2022-12-03T22:43:30.435Z,17.95
2022-12-03T22:46:32.538Z,17.91
2022-12-03T22:49:34.887Z,17.89
2022-12-03T22:52:36.946Z,17.87
2022-12-03T22:55:39.736Z,17.88
2022-12-03T22:58:41.896Z,17.85
2022-12-03T23:01:43.905Z,17.82
2022-12-03T23:04:45.988Z,17.81
2022-12-03T23:07:48.159Z,17.82
2022-12-03T23:10:52.385Z,17.82
2022-12-03T23:13:54.576Z,17.80
2022-12-03T23:16:56.681Z,17.79
2022-12-03T23:19:58.703Z,17.79
2022-12-03T23:23:00.723Z,17.78
2022-12-03T23:26:05.892Z,17.76
2022-12-03T23:29:08.653Z,17.77
2022-12-03T23:32:10.798Z,17.77
2022-12-03T23:35:13.042Z,17.74
2022-12-03T23:38:15.490Z,17.75
2022-12-03T23:41:20.514Z,17.70
2022-12-03T23:44:22.789Z,17.68
2022-12-03T23:47:24.838Z,17.67
2022-12-03T23:50:27.755Z,17.69
2022-12-03T23:53:29.778Z,17.66
2022-12-03T23:56:32.396Z,17.67
2022-12-03T23:59:34.525Z,17.65
